CheckWX is a tool to help pilots better visualize weather data.  It is not intended as a substitute for an official pre-flight weather briefing.

05:35:25 UTC

VAAH TAF
Sardar Vallabhbhai Patel International Airport
Ahmedabad, India
TAF VAAH 240200Z 2403/2412 34003KT 1500 FU HZ FEW080 BECMG 2404/2406 32003KT 5000 FU BECMG 2407/2409 32005KT 6000 FEW080

Feb-24@
03:00 UTC

Feb-24 @ 03:00 UTC

Feb-24@
04:00 UTC

Feb-24 @ 04:00 UTC

TAF VAAH 240200Z 2403/2412 34003KT 1500 FU HZ FEW080

Expired

Wind
  • 340° at 3 KTS
Conditions
Smoke, Haze
Cloud Levels
  • Few at 8,000' AGL

Feb-24@
04:00 UTC

Feb-24 @ 04:00 UTC

Feb-24@
07:00 UTC

Feb-24 @ 07:00 UTC

BECMG 2404/2406 32003KT 5000 FU

Becoming

Becoming Conditions expected by Sun, Feb 24, 2019 @ 06:00 UTC

Wind
  • 320° at 3 KTS
Conditions
Smoke
Cloud Levels
  • Few at 8,000' AGL

Feb-24@
07:00 UTC

Feb-24 @ 07:00 UTC

Feb-24@
12:00 UTC

Feb-24 @ 12:00 UTC

BECMG 2407/2409 32005KT 6000 FEW080

Becoming

Becoming Conditions expected by Sun, Feb 24, 2019 @ 09:00 UTC

Wind
  • 320° at 5 KTS
Conditions
Smoke
Cloud Levels
  • Few at 8,000' AGL